Time;durP1;ratioP1;P1;durP2;ratioP2;P2;SDS_P1;SDS_P2;PMS_P1;PMS_P2;Temp;Humidity;BMP_temperature;BMP_pressure;BME280_temperature;BME280_humidity;BME280_pressure;Samples;Min_cycle;Max_cycle;Signal;HPM_P1;HPM_P2
2021/09/13 00:01:16;;;;;;;39.13;27.33;;;14.40;99.90;;;;;;5094063;28;20477;-71
2021/09/13 00:03:42;;;;;;;35.63;27.13;;;14.30;99.90;;;;;;5075442;28;20031;-70
2021/09/13 00:06:08;;;;;;;39.75;27.95;;;14.20;99.90;;;;;;5093060;28;20489;-70
2021/09/13 00:08:33;;;;;;;36.35;27.15;;;14.10;99.90;;;;;;5094000;28;20440;-71
2021/09/13 00:10:59;;;;;;;45.03;29.08;;;14.10;99.90;;;;;;5092796;28;20039;-70
2021/09/13 00:13:24;;;;;;;44.03;29.05;;;14.00;99.90;;;;;;5093950;28;20047;-70
2021/09/13 00:15:51;;;;;;;39.92;26.83;;;13.90;99.90;;;;;;5093304;28;20071;-70
2021/09/13 00:18:16;;;;;;;37.42;26.30;;;13.80;99.90;;;;;;5093724;28;20038;-70
2021/09/13 00:20:42;;;;;;;37.03;24.75;;;13.80;99.90;;;;;;5092142;28;20518;-70
2021/09/13 00:23:07;;;;;;;39.95;26.55;;;13.70;99.90;;;;;;5093828;28;20059;-71
2021/09/13 00:25:33;;;;;;;42.33;27.23;;;13.60;99.90;;;;;;5093536;28;20028;-70
2021/09/13 00:27:58;;;;;;;36.45;25.85;;;13.60;99.90;;;;;;5092421;28;20032;-70
2021/09/13 00:30:24;;;;;;;41.55;28.90;;;13.50;99.90;;;;;;5093806;28;20027;-70
2021/09/13 00:32:50;;;;;;;37.60;25.42;;;13.50;99.90;;;;;;5092353;28;20039;-70
2021/09/13 00:35:15;;;;;;;33.00;22.65;;;13.40;99.90;;;;;;5093718;28;20590;-70
2021/09/13 00:37:41;;;;;;;28.38;20.67;;;13.40;99.90;;;;;;5091963;28;20021;-70
2021/09/13 00:40:07;;;;;;;26.77;19.85;;;13.40;99.90;;;;;;5093750;28;20464;-70
2021/09/13 00:42:33;;;;;;;27.65;20.48;;;13.30;99.90;;;;;;5093739;28;20024;-70
2021/09/13 00:45:00;;;;;;;28.92;19.65;;;13.30;99.90;;;;;;5093673;28;20025;-70
2021/09/13 00:47:26;;;;;;;32.55;23.77;;;13.20;99.90;;;;;;5093396;28;20074;-70
2021/09/13 00:49:51;;;;;;;26.75;20.58;;;13.20;99.90;;;;;;5093359;28;20024;-70
2021/09/13 00:52:18;;;;;;;27.67;19.42;;;13.20;99.90;;;;;;5093635;28;20400;-70
2021/09/13 00:54:46;;;;;;;28.63;20.70;;;13.10;99.90;;;;;;5093141;28;20026;-70
2021/09/13 00:57:12;;;;;;;26.70;19.50;;;13.10;99.90;;;;;;5093266;28;20031;-70
2021/09/13 00:59:38;;;;;;;26.90;18.95;;;13.00;99.90;;;;;;5093041;28;20026;-70
2021/09/13 01:02:04;;;;;;;26.90;19.42;;;13.00;99.90;;;;;;5091716;28;20024;-70
2021/09/13 01:04:29;;;;;;;27.92;19.45;;;13.00;99.90;;;;;;5096960;28;20020;-70
2021/09/13 01:06:56;;;;;;;26.73;19.20;;;13.00;99.90;;;;;;5097176;28;20020;-70
2021/09/13 01:09:22;;;;;;;27.30;19.02;;;13.00;99.90;;;;;;5095588;28;20024;-70
2021/09/13 01:11:48;;;;;;;32.65;22.25;;;12.90;99.90;;;;;;5097067;28;20107;-70
2021/09/13 01:14:15;;;;;;;34.70;22.15;;;12.90;99.90;;;;;;5096763;28;20023;-70
2021/09/13 01:16:41;;;;;;;28.88;21.02;;;12.90;99.90;;;;;;5096664;28;20031;-70
2021/09/13 01:19:06;;;;;;;36.67;23.35;;;12.80;99.90;;;;;;5096657;28;20028;-70
2021/09/13 01:21:35;;;;;;;29.30;20.50;;;12.80;99.90;;;;;;5096306;28;20012;-70
2021/09/13 01:24:01;;;;;;;28.52;20.27;;;12.80;99.90;;;;;;5096834;28;20016;-70
2021/09/13 01:26:27;;;;;;;26.17;19.35;;;12.70;99.90;;;;;;5078095;28;20038;-70
2021/09/13 01:28:52;;;;;;;28.20;19.35;;;12.70;99.90;;;;;;5095566;28;20108;-70
2021/09/13 01:31:18;;;;;;;26.75;17.88;;;12.70;99.90;;;;;;5095269;28;20035;-70
2021/09/13 01:33:43;;;;;;;27.90;19.10;;;12.60;99.90;;;;;;5096384;28;20034;-70
2021/09/13 01:36:09;;;;;;;26.65;18.05;;;12.60;99.90;;;;;;5095936;28;20027;-70
2021/09/13 01:38:35;;;;;;;28.52;20.00;;;12.50;99.90;;;;;;5096561;28;20073;-70
2021/09/13 01:41:00;;;;;;;31.77;21.55;;;12.40;99.90;;;;;;5096555;28;20024;-70
2021/09/13 01:43:26;;;;;;;27.55;18.05;;;12.40;99.90;;;;;;5095240;28;20347;-70
2021/09/13 01:45:51;;;;;;;20.23;15.95;;;12.40;99.90;;;;;;5096416;28;20032;-70
2021/09/13 01:48:17;;;;;;;22.67;16.73;;;12.30;99.90;;;;;;5094821;28;20028;-70
2021/09/13 01:50:43;;;;;;;27.77;17.77;;;12.40;99.90;;;;;;5096324;28;20040;-70
2021/09/13 01:53:08;;;;;;;24.58;17.23;;;12.30;99.90;;;;;;5096312;28;20488;-70
2021/09/13 01:55:34;;;;;;;23.70;15.70;;;12.30;99.90;;;;;;5095797;28;20509;-70
2021/09/13 01:58:00;;;;;;;21.10;15.77;;;12.30;99.90;;;;;;5095929;28;20060;-70
2021/09/13 02:00:26;;;;;;;24.17;15.45;;;12.20;99.90;;;;;;5095660;28;20035;-70
2021/09/13 02:02:51;;;;;;;24.48;15.95;;;12.20;99.90;;;;;;5096093;28;20099;-70
2021/09/13 02:05:17;;;;;;;20.58;14.75;;;12.20;99.90;;;;;;5094248;28;20028;-71
2021/09/13 02:07:42;;;;;;;20.15;15.27;;;12.20;99.90;;;;;;5094531;28;20028;-70
2021/09/13 02:10:08;;;;;;;21.40;14.95;;;12.20;99.90;;;;;;5077323;28;20066;-70
2021/09/13 02:12:33;;;;;;;19.80;13.60;;;12.10;99.90;;;;;;5095947;28;20111;-70
2021/09/13 02:15:00;;;;;;;19.27;13.75;;;12.10;99.90;;;;;;5095482;28;20024;-70
2021/09/13 02:17:25;;;;;;;20.63;13.70;;;12.10;99.90;;;;;;5095536;28;20020;-70
2021/09/13 02:19:51;;;;;;;19.98;13.38;;;12.10;99.90;;;;;;5095735;28;20101;-70
2021/09/13 02:22:17;;;;;;;20.38;14.30;;;12.10;99.90;;;;;;5094245;28;20047;-70
2021/09/13 02:24:42;;;;;;;20.02;13.82;;;12.00;99.90;;;;;;5094192;28;20028;-70
2021/09/13 02:27:09;;;;;;;18.83;13.85;;;12.00;99.90;;;;;;5076972;28;20096;-70
2021/09/13 02:29:35;;;;;;;20.25;14.45;;;12.00;99.90;;;;;;5095625;28;20028;-70
2021/09/13 02:32:01;;;;;;;20.80;14.57;;;12.00;99.90;;;;;;5095266;28;20376;-70
2021/09/13 02:34:27;;;;;;;19.48;13.43;;;11.90;99.90;;;;;;5095533;28;20036;-70
2021/09/13 02:36:52;;;;;;;18.50;12.88;;;11.90;99.90;;;;;;5094206;28;20476;-70
2021/09/13 02:39:18;;;;;;;18.05;12.73;;;11.90;99.90;;;;;;5094804;28;20024;-70
2021/09/13 02:41:44;;;;;;;21.27;13.30;;;11.80;99.90;;;;;;5095348;28;20016;-70
2021/09/13 02:44:09;;;;;;;15.70;11.93;;;11.80;99.90;;;;;;5095234;28;20030;-70
2021/09/13 02:46:35;;;;;;;16.55;12.40;;;11.80;99.90;;;;;;5094079;28;20031;-70
2021/09/13 02:49:00;;;;;;;21.05;13.70;;;11.70;99.90;;;;;;5095168;28;20028;-70
2021/09/13 02:51:26;;;;;;;17.65;11.98;;;11.70;99.90;;;;;;5076530;28;20472;-70
2021/09/13 02:53:51;;;;;;;18.52;13.38;;;11.70;99.90;;;;;;5093916;28;20031;-70
2021/09/13 02:56:17;;;;;;;20.63;14.10;;;11.70;99.90;;;;;;5094214;28;20047;-70
2021/09/13 02:58:42;;;;;;;21.20;14.90;;;11.70;99.90;;;;;;5095049;28;20020;-70
2021/09/13 03:01:08;;;;;;;16.17;12.98;;;11.60;99.90;;;;;;5094986;28;20115;-71
2021/09/13 03:03:33;;;;;;;18.50;14.05;;;11.60;99.90;;;;;;5094985;28;20377;-70
2021/09/13 03:05:59;;;;;;;20.33;14.55;;;11.60;99.90;;;;;;5094872;28;20023;-70
2021/09/13 03:08:24;;;;;;;23.52;12.88;;;11.50;99.90;;;;;;5094288;28;20031;-70
2021/09/13 03:10:50;;;;;;;20.75;12.55;;;11.50;99.90;;;;;;5094764;28;20024;-70
2021/09/13 03:13:17;;;;;;;18.70;12.85;;;11.50;99.90;;;;;;5094774;28;20024;-70
2021/09/13 03:15:43;;;;;;;18.83;13.57;;;11.50;99.90;;;;;;5093488;28;20024;-70
2021/09/13 03:18:08;;;;;;;20.52;13.95;;;11.50;99.90;;;;;;5094414;28;20466;-70
2021/09/13 03:20:34;;;;;;;19.45;13.48;;;11.50;99.90;;;;;;5092925;28;20032;-70
2021/09/13 03:22:59;;;;;;;18.52;13.35;;;11.40;99.90;;;;;;5076483;28;20020;-70
2021/09/13 03:25:26;;;;;;;25.67;15.40;;;11.40;99.90;;;;;;5092695;28;20032;-70
2021/09/13 03:27:52;;;;;;;19.15;14.00;;;11.40;99.90;;;;;;5094543;28;20099;-70
2021/09/13 03:30:17;;;;;;;17.10;13.68;;;11.40;99.90;;;;;;5094508;28;20111;-70
2021/09/13 03:32:43;;;;;;;22.25;13.57;;;11.30;99.90;;;;;;5094480;28;20020;-70
2021/09/13 03:35:09;;;;;;;26.38;15.00;;;11.30;99.90;;;;;;5094028;28;20389;-70
2021/09/13 03:37:35;;;;;;;23.33;15.70;;;11.30;99.90;;;;;;5093848;28;20024;-70
2021/09/13 03:40:01;;;;;;;18.63;13.25;;;11.30;99.90;;;;;;5094034;28;20046;-70
2021/09/13 03:42:26;;;;;;;21.90;13.82;;;11.20;99.90;;;;;;5094367;28;20020;-71
2021/09/13 03:44:52;;;;;;;18.33;13.77;;;11.20;99.90;;;;;;5094227;28;20024;-71
2021/09/13 03:47:17;;;;;;;18.75;13.30;;;11.20;99.90;;;;;;5092366;28;20385;-69
2021/09/13 03:49:43;;;;;;;20.98;13.93;;;11.10;99.90;;;;;;5094187;28;20031;-70
2021/09/13 03:52:08;;;;;;;20.88;14.32;;;11.20;99.90;;;;;;5094167;28;20040;-70
2021/09/13 03:54:36;;;;;;;23.70;14.38;;;11.20;99.90;;;;;;5092399;28;20024;-70
2021/09/13 03:57:03;;;;;;;17.17;13.07;;;11.10;99.90;;;;;;5094063;28;20070;-70
2021/09/13 03:59:28;;;;;;;19.50;13.98;;;11.10;99.90;;;;;;5092699;28;20077;-70
2021/09/13 04:01:54;;;;;;;18.85;13.30;;;11.10;99.90;;;;;;5093067;28;20020;-70
2021/09/13 04:04:23;;;;;;;21.13;13.50;;;11.10;99.90;;;;;;5094052;28;20052;-70
2021/09/13 04:06:53;;;;;;;19.48;13.63;;;11.10;99.90;;;;;;5092638;28;20048;-69
2021/09/13 04:11:54;;;;;;;23.40;14.75;;;11.00;99.90;;;;;;5093657;28;20380;-70
2021/09/13 04:14:20;;;;;;;19.67;13.27;;;11.00;99.90;;;;;;5093733;28;20089;-70
2021/09/13 04:16:46;;;;;;;24.80;16.08;;;11.00;99.90;;;;;;5093915;28;20028;-70
2021/09/13 04:19:12;;;;;;;21.35;14.98;;;11.00;99.90;;;;;;5093372;28;20381;-70
2021/09/13 04:21:38;;;;;;;29.13;18.02;;;11.00;99.90;;;;;;5092118;28;20060;-69
2021/09/13 04:24:03;;;;;;;25.20;16.80;;;11.00;99.90;;;;;;5075243;28;20024;-70
2021/09/13 04:26:29;;;;;;;32.67;17.48;;;11.00;99.90;;;;;;5092662;28;20369;-69
2021/09/13 04:28:54;;;;;;;24.40;16.17;;;11.00;99.90;;;;;;5093556;28;20066;-70
2021/09/13 04:31:20;;;;;;;25.67;16.77;;;11.00;99.90;;;;;;5093512;28;20036;-69
2021/09/13 04:33:45;;;;;;;22.83;15.50;;;11.00;99.90;;;;;;5093257;28;20028;-70
2021/09/13 04:36:11;;;;;;;22.55;14.90;;;11.00;99.90;;;;;;5091935;28;20058;-70
2021/09/13 04:38:37;;;;;;;26.45;16.55;;;11.00;99.90;;;;;;5095726;28;20084;-70
2021/09/13 04:41:02;;;;;;;22.55;15.60;;;11.00;99.90;;;;;;5096649;28;20028;-70
2021/09/13 04:43:28;;;;;;;26.25;16.95;;;10.90;99.90;;;;;;5097668;28;20039;-69
2021/09/13 04:45:54;;;;;;;26.48;17.35;;;10.90;99.90;;;;;;5097580;28;20454;-70
2021/09/13 04:48:19;;;;;;;22.63;14.63;;;10.90;99.90;;;;;;5078792;28;20057;-70
2021/09/13 04:50:45;;;;;;;23.77;15.52;;;10.90;99.90;;;;;;5097468;28;20052;-69
2021/09/13 04:53:11;;;;;;;31.50;19.00;;;10.90;99.90;;;;;;5097122;28;20362;-70
2021/09/13 04:55:36;;;;;;;27.58;18.20;;;10.90;99.90;;;;;;5096759;28;20051;-70
2021/09/13 04:58:03;;;;;;;25.85;16.65;;;10.90;99.90;;;;;;5096837;28;20384;-69
2021/09/13 05:00:29;;;;;;;23.90;16.15;;;10.90;99.90;;;;;;5097351;28;20078;-70
2021/09/13 05:02:54;;;;;;;25.70;16.25;;;10.90;99.90;;;;;;5097289;28;20032;-70
2021/09/13 05:05:20;;;;;;;24.80;16.83;;;10.90;99.90;;;;;;5097204;28;20020;-70
2021/09/13 05:07:45;;;;;;;30.10;18.60;;;10.90;99.90;;;;;;5095734;28;20069;-70
2021/09/13 05:10:11;;;;;;;27.60;18.05;;;11.00;99.90;;;;;;5097064;28;20025;-70
2021/09/13 05:12:37;;;;;;;27.73;17.60;;;11.00;99.90;;;;;;5095308;28;20024;-70
2021/09/13 05:15:04;;;;;;;31.10;18.85;;;11.00;99.90;;;;;;5096994;28;20393;-70
2021/09/13 05:17:29;;;;;;;30.70;18.92;;;11.10;99.90;;;;;;5096995;28;20047;-70
2021/09/13 05:19:56;;;;;;;26.30;17.67;;;11.10;99.90;;;;;;5096918;28;20028;-70
2021/09/13 05:22:22;;;;;;;28.38;20.02;;;11.20;99.90;;;;;;5095406;28;20457;-70
2021/09/13 05:24:47;;;;;;;31.65;19.60;;;11.30;99.90;;;;;;5095374;28;20469;-70
2021/09/13 05:27:13;;;;;;;33.03;20.17;;;11.30;99.90;;;;;;5096748;28;20035;-70
2021/09/13 05:29:38;;;;;;;29.92;17.73;;;11.40;99.90;;;;;;5096464;28;20032;-70
2021/09/13 05:32:04;;;;;;;29.92;19.40;;;11.50;99.90;;;;;;5095557;28;20031;-71
2021/09/13 05:34:30;;;;;;;31.67;19.30;;;11.50;99.90;;;;;;5096658;28;20024;-71
2021/09/13 05:36:55;;;;;;;31.17;19.20;;;11.60;99.90;;;;;;5096536;28;20461;-70
2021/09/13 05:39:21;;;;;;;33.47;21.10;;;11.70;99.90;;;;;;5096474;28;20027;-70
2021/09/13 05:41:47;;;;;;;30.85;20.60;;;11.80;99.90;;;;;;5094695;28;20028;-70
2021/09/13 05:44:13;;;;;;;30.60;21.08;;;11.90;99.90;;;;;;5094617;28;20104;-70
2021/09/13 05:46:38;;;;;;;31.90;22.08;;;12.00;99.90;;;;;;5096112;28;20036;-70
2021/09/13 05:49:09;;;;;;;32.17;22.02;;;12.10;99.90;;;;;;5095937;28;20093;-70
2021/09/13 05:51:39;;;;;;;31.88;19.80;;;12.30;99.90;;;;;;5096028;28;20024;-70
2021/09/13 05:54:05;;;;;;;27.17;19.52;;;12.50;99.90;;;;;;5094544;28;20023;-70
2021/09/13 05:56:31;;;;;;;24.38;17.63;;;12.70;99.90;;;;;;5095426;28;20398;-70
2021/09/13 05:58:56;;;;;;;23.38;16.27;;;12.80;99.90;;;;;;5095611;28;20021;-70
2021/09/13 06:01:22;;;;;;;27.42;16.10;;;12.80;99.90;;;;;;5094624;28;20023;-70
2021/09/13 06:03:47;;;;;;;23.25;15.30;;;13.00;99.90;;;;;;5093667;28;20032;-70
2021/09/13 06:06:13;;;;;;;20.20;14.23;;;13.20;99.90;;;;;;5092947;28;20027;-70
2021/09/13 06:08:39;;;;;;;18.75;13.65;;;13.30;99.90;;;;;;5094511;28;20423;-70
2021/09/13 06:11:05;;;;;;;18.25;13.40;;;13.50;99.90;;;;;;5094500;28;20027;-71
2021/09/13 06:13:30;;;;;;;19.73;13.60;;;13.70;99.90;;;;;;5094875;28;20052;-71
2021/09/13 06:15:56;;;;;;;16.58;12.52;;;13.80;99.90;;;;;;5095464;28;20032;-70
2021/09/13 06:18:22;;;;;;;17.88;14.02;;;13.90;99.90;;;;;;5095539;28;20355;-71
2021/09/13 06:20:47;;;;;;;19.33;13.27;;;14.20;99.90;;;;;;5095735;28;20063;-71
2021/09/13 06:23:13;;;;;;;15.45;11.77;;;14.50;99.90;;;;;;5093585;28;20067;-70
2021/09/13 06:25:38;;;;;;;15.00;10.88;;;15.20;99.90;;;;;;5094297;28;20063;-70
2021/09/13 06:28:04;;;;;;;17.13;10.45;;;16.40;99.90;;;;;;5094666;28;20039;-71
2021/09/13 06:30:30;;;;;;;16.58;11.27;;;17.00;99.90;;;;;;5094065;28;20024;-71
2021/09/13 06:32:56;;;;;;;17.02;11.07;;;17.30;99.90;;;;;;5076114;28;20028;-71
2021/09/13 06:35:22;;;;;;;17.85;11.93;;;17.10;99.90;;;;;;5091351;28;20028;-71
2021/09/13 06:37:48;;;;;;;23.25;14.30;;;17.00;99.90;;;;;;5093153;28;20589;-70
2021/09/13 06:40:13;;;;;;;24.48;14.93;;;16.60;99.90;;;;;;5095282;28;20045;-70
2021/09/13 06:42:39;;;;;;;25.17;15.38;;;16.40;99.90;;;;;;5087079;28;20039;-71
2021/09/13 06:45:10;;;;;;;24.70;16.55;;;16.40;99.90;;;;;;5095037;28;20028;-70
2021/09/13 06:47:46;;;;;;;33.15;18.25;;;16.70;99.90;;;;;;5084432;28;20149;-71
2021/09/13 06:50:16;;;;;;;35.33;19.27;;;16.80;99.90;;;;;;5081696;28;20028;-69
2021/09/13 06:52:43;;;;;;;34.53;18.88;;;17.00;99.90;;;;;;5073243;28;20142;-70
2021/09/13 06:55:09;;;;;;;26.73;14.90;;;17.50;99.90;;;;;;5091869;28;20048;-70
2021/09/13 06:57:35;;;;;;;28.08;14.98;;;17.80;99.90;;;;;;5094017;28;20031;-70
2021/09/13 07:00:04;;;;;;;30.88;16.63;;;17.80;99.90;;;;;;5091492;28;20398;-70
2021/09/13 07:02:31;;;;;;;24.48;15.57;;;17.80;99.90;;;;;;5090257;28;20020;-71
2021/09/13 07:04:57;;;;;;;27.33;15.85;;;18.10;99.90;;;;;;5091267;28;20059;-70
2021/09/13 07:07:22;;;;;;;23.40;15.73;;;18.40;99.90;;;;;;5094677;28;20052;-71
2021/09/13 07:09:48;;;;;;;24.73;16.30;;;18.70;99.90;;;;;;5094567;28;20073;-70
2021/09/13 07:12:14;;;;;;;17.25;14.35;;;18.30;99.90;;;;;;5093449;28;20040;-71
2021/09/13 07:14:39;;;;;;;26.75;15.13;;;18.60;99.90;;;;;;5092873;28;20032;-70
2021/09/13 07:17:05;;;;;;;18.90;14.07;;;18.60;99.90;;;;;;5092647;28;20028;-70
2021/09/13 07:19:30;;;;;;;20.98;13.00;;;18.80;99.90;;;;;;5088853;28;20051;-70
2021/09/13 07:21:56;;;;;;;33.47;15.38;;;19.20;99.90;;;;;;5091770;28;20102;-70
2021/09/13 07:24:21;;;;;;;23.27;14.65;;;19.10;99.90;;;;;;5091417;28;20020;-70
2021/09/13 07:26:48;;;;;;;20.02;14.23;;;19.10;99.90;;;;;;5091131;28;20034;-73
2021/09/13 07:29:14;;;;;;;19.23;12.73;;;19.10;99.90;;;;;;5092358;28;20040;-72
2021/09/13 07:31:40;;;;;;;14.90;11.65;;;19.10;99.90;;;;;;5094272;28;20024;-72
2021/09/13 07:34:05;;;;;;;15.55;11.55;;;19.40;99.90;;;;;;5092609;28;20028;-71
2021/09/13 07:36:32;;;;;;;18.60;10.77;;;20.10;99.90;;;;;;5092384;28;20107;-71
2021/09/13 07:38:58;;;;;;;16.30;9.23;;;20.90;99.90;;;;;;5093547;28;20028;-71
2021/09/13 07:41:24;;;;;;;9.35;5.85;;;21.40;99.90;;;;;;5092781;28;20027;-68
2021/09/13 07:43:49;;;;;;;8.38;4.68;;;21.20;99.90;;;;;;5093837;28;20028;-71
2021/09/13 07:46:15;;;;;;;9.38;3.53;;;20.80;99.90;;;;;;5092501;28;20059;-70
2021/09/13 07:48:40;;;;;;;8.52;4.35;;;20.50;99.90;;;;;;5093877;28;20024;-71
2021/09/13 07:51:06;;;;;;;9.48;5.20;;;20.30;99.90;;;;;;5093742;28;20070;-70
2021/09/13 07:53:32;;;;;;;7.93;4.75;;;20.60;99.90;;;;;;5092941;28;20548;-71
2021/09/13 07:55:57;;;;;;;7.05;4.03;;;21.10;99.90;;;;;;5093339;28;20048;-71
2021/09/13 07:58:23;;;;;;;11.50;4.22;;;20.50;99.90;;;;;;5093764;28;20039;-71
2021/09/13 08:00:48;;;;;;;9.32;5.20;;;20.90;99.90;;;;;;5093837;28;20381;-71
2021/09/13 08:03:14;;;;;;;8.65;4.97;;;21.20;99.90;;;;;;5093496;28;20488;-71
2021/09/13 08:05:39;;;;;;;5.28;3.35;;;21.70;99.90;;;;;;5093446;28;20028;-71
2021/09/13 08:08:05;;;;;;;5.05;3.05;;;22.20;99.90;;;;;;5093747;28;20477;-71
2021/09/13 08:10:30;;;;;;;10.20;4.28;;;22.80;99.90;;;;;;5094083;28;20160;-71
2021/09/13 08:12:56;;;;;;;10.73;4.25;;;22.20;99.90;;;;;;5096599;28;20103;-72
2021/09/13 08:15:23;;;;;;;10.38;4.00;;;21.30;99.90;;;;;;5097001;28;20028;-72
2021/09/13 08:17:49;;;;;;;8.50;4.30;;;21.40;99.90;;;;;;5097627;28;20039;-72
2021/09/13 08:20:14;;;;;;;8.38;3.80;;;21.60;99.90;;;;;;5096583;28;20377;-72
2021/09/13 08:22:40;;;;;;;9.25;3.80;;;22.30;99.90;;;;;;5096753;28;20016;-70
2021/09/13 08:25:06;;;;;;;5.07;2.83;;;22.10;99.90;;;;;;5095973;28;20016;-71
2021/09/13 08:27:31;;;;;;;6.85;3.50;;;22.40;99.90;;;;;;5095779;28;20020;-71
2021/09/13 08:29:57;;;;;;;7.22;3.00;;;22.40;99.90;;;;;;5096293;28;20035;-72
2021/09/13 08:32:23;;;;;;;7.72;3.97;;;22.60;99.90;;;;;;5078801;28;20034;-72
2021/09/13 08:34:51;;;;;;;6.97;3.65;;;22.30;99.90;;;;;;5097495;28;20154;-72
2021/09/13 08:37:16;;;;;;;8.60;4.25;;;22.10;99.90;;;;;;5096798;28;20528;-70
2021/09/13 08:39:42;;;;;;;6.43;3.60;;;22.50;99.90;;;;;;5078908;28;20059;-71
2021/09/13 08:42:08;;;;;;;9.65;3.47;;;22.90;99.90;;;;;;5096971;28;20031;-71
2021/09/13 08:44:34;;;;;;;6.18;3.13;;;23.30;99.90;;;;;;5097645;28;20461;-71
2021/09/13 08:47:10;;;;;;;8.52;2.85;;;22.50;99.90;;;;;;5097343;28;20024;-71
2021/09/13 08:49:39;;;;;;;8.57;3.25;;;23.30;99.90;;;;;;5096631;28;20032;-71
2021/09/13 08:52:06;;;;;;;9.55;3.63;;;23.00;99.90;;;;;;5096624;28;20028;-71
2021/09/13 08:54:35;;;;;;;6.18;2.90;;;22.50;99.90;;;;;;5096099;28;20024;-70
2021/09/13 08:57:04;;;;;;;5.25;1.67;;;22.40;99.90;;;;;;5096609;28;20064;-70
2021/09/13 08:59:33;;;;;;;6.38;2.38;;;22.10;99.90;;;;;;5096716;28;20034;-70
2021/09/13 09:02:00;;;;;;;8.68;2.40;;;22.20;99.90;;;;;;5076768;28;20020;-70
2021/09/13 09:04:28;;;;;;;7.50;2.63;;;22.90;99.90;;;;;;5076334;28;20031;-70
2021/09/13 09:06:53;;;;;;;7.13;2.80;;;22.80;99.90;;;;;;5085768;28;20114;-70
2021/09/13 09:09:21;;;;;;;5.82;2.67;;;22.70;99.90;;;;;;5094786;28;20063;-70
2021/09/13 09:17:13;;;;;;;5.53;1.50;;;22.50;99.90;;;;;;5070719;28;20354;-69
2021/09/13 09:19:40;;;;;;;4.75;2.30;;;22.40;99.90;;;;;;5070100;28;20032;-70
2021/09/13 09:22:27;;;;;;;5.63;2.60;;;21.90;99.90;;;;;;5069445;28;20029;-71
2021/09/13 09:24:55;;;;;;;6.18;2.65;;;20.70;99.90;;;;;;5070516;28;20075;-70
2021/09/13 09:27:21;;;;;;;3.88;1.92;;;21.60;99.90;;;;;;5056855;28;20025;-70
2021/09/13 09:29:47;;;;;;;5.70;2.05;;;22.10;99.90;;;;;;5050461;28;20079;-70
2021/09/13 09:32:20;;;;;;;15.07;8.30;;;22.40;99.90;;;;;;5049410;28;20418;-70
2021/09/13 09:34:45;;;;;;;5.25;1.83;;;22.60;99.90;;;;;;5047283;28;20040;-71
2021/09/13 09:37:12;;;;;;;7.45;2.28;;;23.00;99.90;;;;;;5049825;28;20025;-71
2021/09/13 09:39:48;;;;;;;7.22;2.13;;;23.20;99.90;;;;;;5050594;28;20119;-71
2021/09/13 09:42:27;;;;;;;3.25;1.73;;;22.50;99.90;;;;;;5049542;28;20467;-71
2021/09/13 09:44:52;;;;;;;4.75;1.48;;;22.70;99.90;;;;;;5050717;28;20075;-72
2021/09/13 09:47:20;;;;;;;6.30;2.17;;;23.70;99.90;;;;;;5049962;28;20533;-71
2021/09/13 09:49:51;;;;;;;6.88;2.55;;;23.30;99.90;;;;;;5050686;28;20032;-71
2021/09/13 09:52:37;;;;;;;15.10;8.65;;;23.10;99.90;;;;;;5048706;28;20041;-71
2021/09/13 09:55:16;;;;;;;3.58;1.60;;;23.00;99.90;;;;;;5050070;28;20030;-72
2021/09/13 09:57:44;;;;;;;6.38;1.60;;;22.40;99.90;;;;;;5056898;28;20107;-71
2021/09/13 10:00:21;;;;;;;4.47;1.33;;;21.80;99.90;;;;;;5068738;28;20028;-71
2021/09/13 10:02:48;;;;;;;2.55;1.17;;;22.50;99.90;;;;;;5051526;28;20030;-72
2021/09/13 10:05:14;;;;;;;4.60;1.45;;;23.70;99.90;;;;;;5050411;28;20021;-71
2021/09/13 10:07:41;;;;;;;3.78;1.23;;;23.30;99.90;;;;;;5049522;28;20047;-71
2021/09/13 10:10:07;;;;;;;3.17;1.10;;;23.20;99.90;;;;;;5049477;28;20029;-71
2021/09/13 10:12:34;;;;;;;5.75;1.20;;;23.90;99.90;;;;;;5049333;28;20378;-71
2021/09/13 10:15:02;;;;;;;3.83;1.33;;;23.60;99.90;;;;;;5057419;28;20028;-71
2021/09/13 10:17:28;;;;;;;3.10;1.20;;;23.10;99.90;;;;;;5069741;28;20048;-72
2021/09/13 10:19:54;;;;;;;2.13;1.23;;;23.10;99.90;;;;;;5053796;28;20029;-72
2021/09/13 10:22:19;;;;;;;3.17;1.13;;;23.80;99.90;;;;;;5055494;28;20025;-72
2021/09/13 10:24:48;;;;;;;2.60;1.30;;;23.30;99.90;;;;;;5062656;28;20467;-72
2021/09/13 10:27:16;;;;;;;4.47;1.50;;;23.20;99.90;;;;;;5051688;28;20025;-72
2021/09/13 10:29:42;;;;;;;3.55;1.20;;;23.00;99.90;;;;;;5038841;28;20031;-72
2021/09/13 10:32:10;;;;;;;1.83;1.20;;;22.60;99.90;;;;;;5056590;28;20029;-72
2021/09/13 10:34:49;;;;;;;3.80;1.27;;;22.90;99.90;;;;;;5043579;28;20045;-72
2021/09/13 10:37:21;;;;;;;2.97;1.60;;;22.90;99.90;;;;;;5036227;28;20032;-72
2021/09/13 10:40:09;;;;;;;3.20;0.95;;;23.00;99.90;;;;;;5035713;28;20132;-72
2021/09/13 10:42:51;;;;;;;3.90;1.10;;;24.30;99.90;;;;;;5034154;28;20496;-72
2021/09/13 10:45:22;;;;;;;2.88;1.20;;;24.80;99.90;;;;;;5028138;28;20053;-69
2021/09/13 10:47:50;;;;;;;1.67;1.25;;;24.60;99.90;;;;;;5031446;28;20036;-69
2021/09/13 10:50:39;;;;;;;2.65;1.27;;;24.20;99.90;;;;;;5025932;28;20419;-69
2021/09/13 10:56:22;;;;;;;3.85;1.30;;;24.40;99.90;;;;;;5112129;27;20412;-70
2021/09/13 10:58:51;;;;;;;2.20;1.35;;;24.60;99.90;;;;;;5111401;28;20020;-70
2021/09/13 11:01:20;;;;;;;3.13;1.30;;;24.40;99.90;;;;;;5111135;28;20020;-71
2021/09/13 11:03:51;;;;;;;2.25;1.05;;;24.50;99.90;;;;;;5111344;28;20111;-68
2021/09/13 11:08:59;;;;;;;3.67;1.05;;;24.40;99.90;;;;;;5087974;27;20152;-71
2021/09/13 11:11:31;;;;;;;3.30;2.28;;;23.90;99.90;;;;;;5068828;28;20024;-70
2021/09/13 11:14:03;;;;;;;3.03;1.95;;;23.90;99.90;;;;;;5070823;28;20025;-70
2021/09/13 11:16:32;;;;;;;4.28;1.02;;;23.50;99.90;;;;;;5070363;28;20028;-70
2021/09/13 11:18:58;;;;;;;2.90;1.10;;;23.30;99.90;;;;;;5070767;28;20043;-70
2021/09/13 11:21:33;;;;;;;3.25;1.35;;;23.60;99.90;;;;;;5069214;28;20024;-70
2021/09/13 11:27:04;;;;;;;2.42;1.50;;;22.70;99.90;;;;;;5070182;28;20410;-70
2021/09/13 11:29:36;;;;;;;4.47;2.28;;;22.40;99.90;;;;;;5050108;28;20029;-71
2021/09/13 11:32:06;;;;;;;3.15;1.42;;;23.40;99.90;;;;;;5044754;28;20017;-71
2021/09/13 11:34:39;;;;;;;4.15;1.10;;;22.90;99.90;;;;;;5046892;28;20461;-70
2021/09/13 11:37:14;;;;;;;2.22;1.02;;;23.40;99.90;;;;;;5039545;28;20028;-71
2021/09/13 11:39:44;;;;;;;2.15;1.25;;;23.50;99.90;;;;;;5050780;28;20098;-71
2021/09/13 11:42:14;;;;;;;2.35;1.42;;;23.70;99.90;;;;;;5050457;28;20025;-71
2021/09/13 11:44:43;;;;;;;3.47;1.65;;;24.40;99.90;;;;;;5050637;28;20053;-71
2021/09/13 11:47:11;;;;;;;2.60;1.63;;;23.30;99.90;;;;;;5050717;28;20021;-71
2021/09/13 11:49:39;;;;;;;4.82;1.52;;;23.00;99.90;;;;;;5049069;28;20036;-70
2021/09/13 11:52:08;;;;;;;1.60;1.00;;;23.10;99.90;;;;;;5050377;28;20017;-71
2021/09/13 11:54:40;;;;;;;1.92;1.20;;;23.10;99.90;;;;;;5049341;28;20025;-71
2021/09/13 12:00:20;;;;;;;2.90;1.30;;;23.00;99.90;;;;;;5107708;27;20367;-70
2021/09/13 12:03:03;;;;;;;2.85;1.20;;;23.20;99.90;;;;;;5091058;28;20024;-69
2021/09/13 12:05:33;;;;;;;2.92;1.30;;;23.30;99.90;;;;;;5091312;28;20017;-71
2021/09/13 12:08:00;;;;;;;2.22;1.15;;;23.50;99.90;;;;;;5091016;28;20020;-69
2021/09/13 12:10:29;;;;;;;2.30;1.05;;;23.40;99.90;;;;;;5090977;28;20533;-69
2021/09/13 12:12:58;;;;;;;2.25;1.08;;;23.50;99.90;;;;;;5091148;28;20079;-69
2021/09/13 12:15:26;;;;;;;2.40;1.10;;;24.00;99.90;;;;;;5072457;28;20478;-69
2021/09/13 12:17:53;;;;;;;1.77;1.15;;;23.90;99.90;;;;;;5090606;28;20024;-69
2021/09/13 12:20:24;;;;;;;3.20;1.40;;;24.10;99.90;;;;;;5091057;28;20111;-69
2021/09/13 12:23:08;;;;;;;2.20;0.93;;;23.30;99.90;;;;;;5091013;28;20446;-69
2021/09/13 12:25:52;;;;;;;3.00;1.00;;;23.70;99.90;;;;;;5091197;28;20519;-70
2021/09/13 12:28:21;;;;;;;1.20;0.90;;;23.50;99.90;;;;;;5090646;28;20359;-70
2021/09/13 12:30:53;;;;;;;2.58;1.15;;;23.40;99.90;;;;;;5072231;28;20031;-68
2021/09/13 12:33:18;;;;;;;2.00;1.08;;;23.60;99.90;;;;;;5090831;28;20024;-69
2021/09/13 12:35:47;;;;;;;1.30;1.00;;;23.60;99.90;;;;;;5090387;28;20039;-69
2021/09/13 12:38:15;;;;;;;2.25;1.00;;;23.60;99.90;;;;;;5072008;28;20526;-72
2021/09/13 12:41:01;;;;;;;1.42;0.98;;;23.70;99.90;;;;;;5089633;28;20017;-71
2021/09/13 12:43:32;;;;;;;1.30;0.90;;;23.70;99.90;;;;;;5072423;28;20036;-71
2021/09/13 12:46:08;;;;;;;4.55;2.05;;;23.30;99.90;;;;;;5071120;28;20416;-71
2021/09/13 12:48:37;;;;;;;2.42;1.05;;;23.30;99.90;;;;;;5089966;28;20028;-71
2021/09/13 12:51:04;;;;;;;2.22;1.55;;;23.20;99.90;;;;;;5089368;28;20021;-70
2021/09/13 12:53:30;;;;;;;2.88;1.45;;;23.00;99.90;;;;;;5089137;28;20027;-70
2021/09/13 12:55:58;;;;;;;1.92;1.20;;;22.80;99.90;;;;;;5070364;28;20031;-70